createdAt,value
2018-03-21T00:02:23.384Z,99.90
2018-03-21T00:04:51.733Z,99.90
2018-03-21T00:07:20.103Z,99.90
2018-03-21T00:09:48.423Z,99.90
2018-03-21T00:12:16.797Z,99.90
2018-03-21T00:14:45.148Z,99.90
2018-03-21T00:17:13.656Z,99.90
2018-03-21T00:19:42.039Z,99.90
2018-03-21T00:22:10.361Z,99.90
2018-03-21T00:24:38.742Z,99.90
2018-03-21T00:27:07.120Z,99.90
2018-03-21T00:29:35.463Z,99.90
2018-03-21T00:32:03.796Z,99.90
2018-03-21T00:34:32.944Z,99.90
2018-03-21T00:37:01.271Z,99.90
2018-03-21T00:39:29.602Z,99.90
2018-03-21T00:41:57.967Z,99.90
2018-03-21T00:44:26.294Z,99.90
2018-03-21T00:46:55.309Z,99.90
2018-03-21T00:49:23.774Z,99.90
2018-03-21T00:51:52.106Z,99.90
2018-03-21T00:54:20.426Z,99.90
2018-03-21T00:56:50.768Z,99.90
2018-03-21T00:59:19.093Z,99.90
2018-03-21T01:01:47.443Z,99.90
2018-03-21T01:04:15.756Z,99.90
2018-03-21T01:06:44.073Z,99.90
2018-03-21T01:09:12.449Z,99.90
2018-03-21T01:11:40.776Z,99.90
2018-03-21T01:14:09.101Z,99.90
2018-03-21T01:16:38.245Z,99.90
2018-03-21T01:19:06.572Z,99.90
2018-03-21T01:21:34.908Z,99.90
2018-03-21T01:24:04.180Z,99.90
2018-03-21T01:26:32.495Z,99.90
2018-03-21T01:29:00.998Z,99.90
2018-03-21T01:31:29.360Z,99.90
2018-03-21T01:33:58.196Z,99.90
2018-03-21T01:36:26.582Z,99.90
2018-03-21T01:38:55.673Z,99.90
2018-03-21T01:41:24.816Z,99.90
2018-03-21T01:43:53.161Z,99.90
2018-03-21T01:46:21.501Z,99.90
2018-03-21T01:48:50.111Z,99.90
2018-03-21T01:51:18.469Z,99.90
2018-03-21T01:53:47.586Z,99.90
2018-03-21T01:56:16.745Z,99.90
2018-03-21T01:58:45.134Z,99.90
2018-03-21T02:01:13.513Z,99.90
2018-03-21T02:03:41.848Z,99.90
2018-03-21T02:06:10.176Z,99.90
2018-03-21T02:08:38.593Z,99.90
2018-03-21T02:11:07.234Z,99.90
2018-03-21T02:13:35.572Z,99.90
2018-03-21T02:16:03.902Z,99.90
2018-03-21T02:18:33.385Z,99.90
2018-03-21T02:21:01.713Z,99.90
2018-03-21T02:23:30.058Z,99.90
2018-03-21T02:26:01.772Z,99.90
2018-03-21T02:28:30.098Z,99.90
2018-03-21T02:30:58.429Z,99.90
2018-03-21T02:33:27.126Z,99.90
2018-03-21T02:35:55.604Z,99.90
2018-03-21T02:38:24.122Z,99.90
2018-03-21T02:40:53.300Z,99.90
2018-03-21T02:43:21.632Z,99.90
2018-03-21T02:45:49.989Z,99.90
2018-03-21T02:48:19.189Z,99.90
2018-03-21T02:50:47.524Z,99.90
2018-03-21T02:53:15.901Z,99.90
2018-03-21T02:55:44.245Z,99.90
2018-03-21T02:58:12.560Z,99.90
2018-03-21T03:00:41.016Z,99.90
2018-03-21T03:03:09.340Z,99.90
2018-03-21T03:05:37.700Z,99.90
2018-03-21T03:08:06.487Z,99.90
2018-03-21T03:10:35.412Z,99.90
2018-03-21T03:13:03.734Z,99.90
2018-03-21T03:15:32.071Z,99.90
2018-03-21T03:18:00.579Z,99.90
2018-03-21T03:20:29.080Z,99.90
2018-03-21T03:22:57.611Z,99.90
2018-03-21T03:25:26.000Z,99.90
2018-03-21T03:27:54.329Z,99.90
2018-03-21T03:30:22.685Z,99.90
2018-03-21T03:32:51.016Z,99.90
2018-03-21T03:35:19.360Z,99.90
2018-03-21T03:37:47.680Z,99.90
2018-03-21T03:40:16.808Z,99.90
2018-03-21T03:42:45.129Z,99.90
2018-03-21T03:45:13.913Z,99.90
2018-03-21T03:47:42.236Z,99.90
2018-03-21T03:50:11.342Z,99.90
2018-03-21T03:52:39.696Z,99.90
2018-03-21T03:55:08.474Z,99.90
2018-03-21T03:57:36.879Z,99.90
2018-03-21T04:00:05.923Z,99.90
2018-03-21T04:02:34.423Z,99.90
2018-03-21T04:05:02.951Z,99.90
2018-03-21T04:07:31.392Z,99.90
2018-03-21T04:10:00.209Z,99.90
2018-03-21T04:12:29.096Z,99.90
2018-03-21T04:14:58.221Z,99.90
2018-03-21T04:17:26.942Z,99.90
2018-03-21T04:19:55.301Z,99.90
2018-03-21T04:22:23.779Z,99.90
2018-03-21T04:24:52.105Z,99.90
2018-03-21T04:27:21.216Z,99.90
2018-03-21T04:29:50.302Z,99.90
2018-03-21T04:32:19.431Z,99.90
2018-03-21T04:34:47.750Z,99.90
2018-03-21T04:37:16.116Z,99.90
2018-03-21T04:39:44.455Z,99.90
2018-03-21T04:42:13.240Z,99.90
2018-03-21T04:44:41.586Z,99.90
2018-03-21T04:47:11.061Z,99.90
2018-03-21T04:49:39.564Z,99.90
2018-03-21T04:52:08.511Z,99.90
2018-03-21T04:54:37.616Z,99.90
2018-03-21T04:57:05.996Z,99.90
2018-03-21T04:59:34.321Z,99.90
2018-03-21T05:02:02.643Z,99.90
2018-03-21T05:04:30.984Z,99.90
2018-03-21T05:06:59.310Z,99.90
2018-03-21T05:09:28.031Z,99.90
2018-03-21T05:11:56.348Z,99.90
2018-03-21T05:14:24.527Z,99.90
2018-03-21T05:16:52.904Z,99.90
2018-03-21T05:19:21.282Z,99.90
2018-03-21T05:21:49.608Z,99.90
2018-03-21T05:24:18.170Z,99.90
2018-03-21T05:26:46.464Z,99.90
2018-03-21T05:29:15.417Z,99.90
2018-03-21T05:31:43.779Z,99.90
2018-03-21T05:34:12.861Z,99.90
2018-03-21T05:36:41.943Z,99.90
2018-03-21T05:39:10.972Z,99.90
2018-03-21T05:41:39.288Z,99.90
2018-03-21T05:44:07.604Z,99.90
2018-03-21T05:46:37.221Z,99.90
2018-03-21T05:49:05.589Z,99.90
2018-03-21T05:51:33.908Z,99.90
2018-03-21T05:54:02.333Z,99.90
2018-03-21T05:56:32.365Z,99.90
2018-03-21T05:59:01.287Z,99.90
2018-03-21T06:01:33.011Z,99.90
2018-03-21T06:04:01.362Z,99.90
2018-03-21T06:06:30.284Z,99.90
2018-03-21T06:08:58.608Z,99.90
2018-03-21T06:11:26.934Z,99.90
2018-03-21T06:13:55.294Z,99.90
2018-03-21T06:16:23.788Z,99.90
2018-03-21T06:18:52.129Z,99.90
2018-03-21T06:21:20.479Z,99.90
2018-03-21T06:23:48.899Z,99.90
2018-03-21T06:26:17.254Z,99.90
2018-03-21T06:28:45.573Z,99.90
2018-03-21T06:31:13.925Z,99.90
2018-03-21T06:33:42.327Z,99.90
2018-03-21T06:36:10.652Z,99.90
2018-03-21T06:38:38.972Z,99.90
2018-03-21T06:41:07.896Z,99.90
2018-03-21T06:43:36.984Z,99.90
2018-03-21T06:46:05.292Z,99.90
2018-03-21T06:48:34.613Z,99.90
2018-03-21T06:51:03.011Z,99.90
2018-03-21T06:53:32.051Z,99.90
2018-03-21T06:56:01.176Z,99.90
2018-03-21T06:58:29.740Z,99.90
2018-03-21T07:00:58.065Z,99.90
2018-03-21T07:03:26.473Z,99.90
2018-03-21T07:05:54.928Z,99.90
2018-03-21T07:08:23.240Z,99.90
2018-03-21T07:10:51.587Z,99.90
2018-03-21T07:13:19.896Z,99.90
2018-03-21T07:16:08.932Z,99.90
2018-03-21T07:18:37.242Z,99.90
2018-03-21T07:21:05.552Z,99.90
2018-03-21T07:23:33.895Z,99.90
2018-03-21T07:26:02.264Z,99.90
2018-03-21T07:28:30.592Z,99.90
2018-03-21T07:30:59.076Z,99.90
2018-03-21T07:33:28.293Z,99.90
2018-03-21T07:35:56.624Z,99.90
2018-03-21T07:38:25.292Z,99.90
2018-03-21T07:40:53.627Z,99.50
2018-03-21T07:43:21.936Z,98.10
2018-03-21T07:45:50.755Z,96.30
2018-03-21T07:48:19.061Z,99.90
2018-03-21T07:50:47.410Z,97.80
2018-03-21T07:53:16.521Z,99.40
2018-03-21T07:55:45.680Z,99.40
2018-03-21T07:58:15.475Z,96.00
2018-03-21T08:00:43.800Z,92.40
2018-03-21T08:03:12.838Z,83.00
2018-03-21T08:05:41.903Z,80.70
2018-03-21T08:08:10.223Z,68.10
2018-03-21T08:10:38.573Z,65.90
2018-03-21T08:13:07.217Z,69.10
2018-03-21T08:15:36.683Z,88.60
2018-03-21T08:18:05.116Z,88.80
2018-03-21T08:20:33.415Z,86.80
2018-03-21T08:23:01.728Z,93.10
2018-03-21T08:25:30.089Z,90.40
2018-03-21T08:28:01.297Z,85.20
2018-03-21T08:30:29.636Z,78.20
2018-03-21T08:32:57.992Z,87.00
2018-03-21T08:35:26.304Z,83.30
2018-03-21T08:37:54.624Z,88.10
2018-03-21T08:40:23.348Z,78.60
2018-03-21T08:42:51.656Z,78.40
2018-03-21T08:45:19.963Z,81.20
2018-03-21T08:47:48.324Z,87.70
2018-03-21T08:50:16.636Z,88.50
2018-03-21T08:52:45.856Z,90.50
2018-03-21T08:55:14.198Z,92.90
2018-03-21T08:57:42.523Z,92.00
2018-03-21T09:00:10.890Z,92.10
2018-03-21T09:02:39.447Z,95.10
2018-03-21T09:05:07.787Z,94.20
2018-03-21T09:07:36.316Z,97.90
2018-03-21T09:10:04.619Z,98.10
2018-03-21T09:12:32.938Z,97.00
2018-03-21T09:15:03.528Z,99.80
2018-03-21T09:17:32.014Z,96.10
2018-03-21T09:20:01.119Z,95.30
2018-03-21T09:22:30.537Z,93.30
2018-03-21T09:24:59.901Z,93.30
2018-03-21T09:27:28.330Z,93.50
2018-03-21T09:29:57.231Z,94.10
2018-03-21T09:32:25.552Z,95.10
2018-03-21T09:34:53.851Z,93.80
2018-03-21T09:37:23.328Z,79.30
2018-03-21T09:39:51.600Z,80.40
2018-03-21T09:42:19.934Z,72.60
2018-03-21T09:44:48.303Z,67.90
2018-03-21T09:47:17.088Z,57.60
2018-03-21T09:49:45.458Z,56.30
2018-03-21T09:52:14.044Z,58.40
2018-03-21T09:54:43.115Z,53.40
2018-03-21T09:57:11.700Z,53.30
2018-03-21T09:59:40.500Z,56.50
2018-03-21T10:02:08.829Z,54.00
2018-03-21T10:04:37.563Z,52.50
2018-03-21T10:07:05.880Z,55.50
2018-03-21T10:09:34.728Z,53.60
2018-03-21T10:12:03.092Z,58.20
2018-03-21T10:14:31.392Z,62.30
2018-03-21T10:16:59.696Z,64.30
2018-03-21T10:19:31.100Z,68.90
2018-03-21T10:21:59.282Z,61.30
2018-03-21T10:24:27.380Z,52.60
2018-03-21T10:26:55.692Z,51.20
2018-03-21T10:29:25.176Z,52.10
2018-03-21T10:31:53.479Z,52.90
2018-03-21T10:34:22.266Z,56.00
2018-03-21T10:36:51.496Z,64.20
2018-03-21T10:39:20.596Z,58.10
2018-03-21T10:41:48.827Z,53.80
2018-03-21T10:44:17.164Z,53.30
2018-03-21T10:46:45.966Z,48.40
2018-03-21T10:49:14.430Z,48.10
2018-03-21T10:51:43.478Z,46.50
2018-03-21T10:54:11.911Z,48.30
2018-03-21T10:56:41.147Z,46.20
2018-03-21T10:59:09.989Z,47.10
2018-03-21T11:01:40.676Z,43.20
2018-03-21T11:04:09.045Z,42.80
2018-03-21T11:06:39.829Z,42.80
2018-03-21T11:09:08.025Z,43.20
2018-03-21T11:11:37.922Z,46.80
2018-03-21T11:14:06.399Z,45.10
2018-03-21T11:16:35.194Z,44.30
2018-03-21T11:19:03.535Z,41.80
2018-03-21T11:21:31.845Z,42.90
2018-03-21T11:24:00.214Z,42.50
2018-03-21T11:26:29.027Z,44.10
2018-03-21T11:28:57.449Z,49.40
2018-03-21T11:31:25.820Z,46.80
2018-03-21T11:33:55.224Z,45.00
2018-03-21T11:36:23.531Z,44.50
2018-03-21T11:38:51.868Z,46.00
2018-03-21T11:41:20.790Z,45.60
2018-03-21T11:43:49.187Z,43.50
2018-03-21T11:46:17.547Z,41.60
2018-03-21T11:48:45.852Z,38.00
2018-03-21T11:51:15.697Z,34.00
2018-03-21T11:53:44.080Z,33.90
2018-03-21T11:56:12.421Z,34.70
2018-03-21T11:58:41.933Z,38.80
2018-03-21T12:01:10.928Z,36.80
2018-03-21T12:03:39.892Z,39.80
2018-03-21T12:06:08.212Z,40.70
2018-03-21T12:08:37.425Z,41.60
2018-03-21T12:11:06.345Z,42.30
2018-03-21T12:13:35.496Z,42.40
2018-03-21T12:16:03.972Z,41.50
2018-03-21T12:18:32.952Z,40.90
2018-03-21T12:21:01.743Z,39.50
2018-03-21T12:23:32.832Z,39.60
2018-03-21T12:26:01.215Z,39.30
2018-03-21T12:28:29.523Z,35.20
2018-03-21T12:30:58.428Z,34.80
2018-03-21T12:33:27.388Z,31.50
2018-03-21T12:35:56.525Z,29.70
2018-03-21T12:38:25.911Z,34.90
2018-03-21T12:40:54.820Z,34.90
2018-03-21T12:43:23.615Z,33.70
2018-03-21T12:45:52.997Z,31.50
2018-03-21T12:48:22.645Z,28.10
2018-03-21T12:50:51.220Z,30.00
2018-03-21T12:53:19.597Z,30.60
2018-03-21T12:55:48.708Z,31.60
2018-03-21T12:58:17.056Z,31.40
2018-03-21T13:00:46.771Z,31.80
2018-03-21T13:03:15.735Z,33.10
2018-03-21T13:05:44.816Z,35.30
2018-03-21T13:08:13.172Z,37.90
2018-03-21T13:10:42.101Z,36.00
2018-03-21T13:13:10.413Z,37.40
2018-03-21T13:15:39.249Z,37.40
2018-03-21T13:18:08.764Z,36.30
2018-03-21T13:20:37.252Z,36.10
2018-03-21T13:23:06.277Z,36.10
2018-03-21T13:25:34.509Z,36.40
2018-03-21T13:28:02.808Z,37.50
2018-03-21T13:30:31.673Z,36.90
2018-03-21T13:33:00.040Z,36.90
2018-03-21T13:35:28.624Z,38.30
2018-03-21T13:37:57.770Z,39.30
2018-03-21T13:40:28.076Z,38.10
2018-03-21T13:42:56.435Z,34.50
2018-03-21T13:45:24.672Z,35.00
2018-03-21T13:47:54.579Z,34.30
2018-03-21T13:50:22.920Z,35.20
2018-03-21T13:52:51.227Z,36.80
2018-03-21T13:55:20.272Z,35.80
2018-03-21T13:57:50.272Z,34.80
2018-03-21T14:00:18.557Z,31.30
2018-03-21T14:02:47.172Z,26.80
2018-03-21T14:05:15.583Z,27.30
2018-03-21T14:07:45.177Z,27.60
2018-03-21T14:10:15.073Z,27.60
2018-03-21T14:12:43.377Z,27.90
2018-03-21T14:15:12.652Z,27.70
2018-03-21T14:17:42.000Z,26.40
2018-03-21T14:20:11.150Z,26.70
2018-03-21T14:22:39.919Z,28.40
2018-03-21T14:25:08.517Z,30.40
2018-03-21T14:27:36.897Z,31.30
2018-03-21T14:30:05.248Z,31.40
2018-03-21T14:32:33.520Z,33.70
2018-03-21T14:35:01.884Z,34.10
2018-03-21T14:37:30.237Z,34.20
2018-03-21T14:39:58.877Z,35.30
2018-03-21T14:42:27.177Z,36.00
2018-03-21T14:44:55.691Z,34.60
2018-03-21T14:47:24.823Z,34.20
2018-03-21T14:49:53.856Z,35.90
2018-03-21T14:52:22.470Z,36.50
2018-03-21T14:54:51.543Z,37.90
2018-03-21T14:57:19.887Z,37.80
2018-03-21T14:59:48.706Z,40.80
2018-03-21T15:02:17.008Z,40.30
2018-03-21T15:04:45.496Z,40.30
2018-03-21T15:07:14.560Z,38.50
2018-03-21T15:09:43.964Z,38.50
2018-03-21T15:12:12.274Z,39.20
2018-03-21T15:14:40.615Z,39.00
2018-03-21T15:17:09.161Z,38.50
2018-03-21T15:19:37.932Z,38.20
2018-03-21T15:22:06.240Z,37.50
2018-03-21T15:24:34.599Z,36.40
2018-03-21T15:27:03.101Z,35.00
2018-03-21T15:29:32.020Z,33.40
2018-03-21T15:32:00.336Z,32.30
2018-03-21T15:34:28.744Z,33.60
2018-03-21T15:36:56.871Z,35.90
2018-03-21T15:39:27.444Z,36.50
2018-03-21T15:41:56.489Z,36.30
2018-03-21T15:44:25.618Z,36.00
2018-03-21T15:46:54.027Z,35.90
2018-03-21T15:49:22.388Z,35.90
2018-03-21T15:51:51.419Z,36.20
2018-03-21T15:54:20.212Z,37.00
2018-03-21T15:56:49.007Z,36.60
2018-03-21T15:59:17.204Z,38.10
2018-03-21T16:01:45.922Z,37.80
2018-03-21T16:04:15.061Z,37.30
2018-03-21T16:06:43.363Z,37.90
2018-03-21T16:09:11.729Z,37.30
2018-03-21T16:11:40.239Z,36.50
2018-03-21T16:14:09.603Z,36.90
2018-03-21T16:16:40.290Z,35.60
2018-03-21T16:19:09.903Z,35.60
2018-03-21T16:21:38.276Z,36.30
2018-03-21T16:24:06.912Z,37.00
2018-03-21T16:26:37.016Z,36.80
2018-03-21T16:29:05.543Z,37.10
2018-03-21T16:31:33.852Z,36.50
2018-03-21T16:34:03.475Z,37.60
2018-03-21T16:36:31.780Z,38.30
2018-03-21T16:39:00.968Z,37.10
2018-03-21T16:41:29.964Z,37.10
2018-03-21T16:43:59.192Z,37.70
2018-03-21T16:46:27.960Z,37.50
2018-03-21T16:49:00.632Z,37.90
2018-03-21T16:51:29.738Z,38.10
2018-03-21T16:53:58.208Z,37.90
2018-03-21T16:56:26.548Z,38.40
2018-03-21T16:58:55.461Z,38.80
2018-03-21T17:01:23.907Z,38.60
2018-03-21T17:03:52.204Z,38.60
2018-03-21T17:06:20.517Z,39.10
2018-03-21T17:08:49.629Z,38.70
2018-03-21T17:11:18.696Z,38.10
2018-03-21T17:13:47.053Z,38.00
2018-03-21T17:16:15.855Z,38.50
2018-03-21T17:18:44.199Z,38.90
2018-03-21T17:21:13.136Z,39.00
2018-03-21T17:23:41.445Z,39.30
2018-03-21T17:26:09.751Z,39.80
2018-03-21T17:28:38.092Z,40.40
2018-03-21T17:31:06.392Z,39.90
2018-03-21T17:33:34.708Z,39.90
2018-03-21T17:36:03.092Z,40.10
2018-03-21T17:38:31.432Z,40.80
2018-03-21T17:40:59.732Z,40.70
2018-03-21T17:43:28.085Z,41.10
2018-03-21T17:45:56.404Z,41.00
2018-03-21T17:48:24.908Z,40.50
2018-03-21T17:50:53.267Z,41.70
2018-03-21T17:53:21.591Z,41.50
2018-03-21T17:55:54.560Z,41.80
2018-03-21T17:58:23.893Z,42.20
2018-03-21T18:00:53.072Z,42.30
2018-03-21T18:03:21.556Z,42.30
2018-03-21T18:05:50.620Z,42.20
2018-03-21T18:08:20.344Z,43.00
2018-03-21T18:10:48.675Z,42.80
2018-03-21T18:13:17.412Z,43.00
2018-03-21T18:15:45.779Z,42.80
2018-03-21T18:18:14.771Z,44.20
2018-03-21T18:20:43.309Z,44.80
2018-03-21T18:23:15.504Z,46.00
2018-03-21T18:25:43.953Z,46.80
2018-03-21T18:28:12.268Z,50.70
2018-03-21T18:30:41.018Z,55.60
2018-03-21T18:33:09.359Z,56.50
2018-03-21T18:35:37.681Z,58.00
2018-03-21T18:38:06.364Z,54.80
2018-03-21T18:40:35.484Z,52.10
2018-03-21T18:43:03.801Z,50.80
2018-03-21T18:45:32.135Z,53.70
2018-03-21T18:48:01.992Z,60.50
2018-03-21T18:50:30.384Z,60.30
2018-03-21T18:52:58.792Z,57.70
2018-03-21T18:55:27.130Z,59.70
2018-03-21T18:57:55.468Z,61.60
2018-03-21T19:00:24.000Z,67.00
2018-03-21T19:02:53.249Z,65.50
2018-03-21T19:05:21.908Z,72.20
2018-03-21T19:07:50.224Z,68.40
2018-03-21T19:10:18.568Z,71.30
2018-03-21T19:12:50.212Z,76.60
2018-03-21T19:15:18.341Z,77.30
2018-03-21T19:17:47.512Z,79.90
2018-03-21T19:20:15.760Z,81.40
2018-03-21T19:22:44.085Z,86.70
2018-03-21T19:25:13.403Z,87.50
2018-03-21T19:27:41.784Z,90.80
2018-03-21T19:30:12.063Z,93.50
2018-03-21T19:32:42.786Z,96.00
2018-03-21T19:35:11.196Z,95.60
2018-03-21T19:37:39.576Z,95.50
2018-03-21T19:40:08.680Z,97.50
2018-03-21T19:42:37.006Z,97.50
2018-03-21T19:45:05.424Z,98.70
2018-03-21T19:47:34.529Z,99.70
2018-03-21T19:50:03.648Z,99.90
2018-03-21T19:52:31.973Z,99.90
2018-03-21T19:55:01.949Z,99.90
2018-03-21T19:57:30.291Z,99.90
2018-03-21T19:59:59.401Z,99.90
2018-03-21T20:02:27.968Z,99.90
2018-03-21T20:04:56.076Z,99.90
2018-03-21T20:07:24.476Z,99.90
2018-03-21T20:09:52.907Z,99.90
2018-03-21T20:12:21.804Z,99.90
2018-03-21T20:14:50.182Z,99.90
2018-03-21T20:17:18.593Z,99.90
2018-03-21T20:19:46.923Z,99.90
2018-03-21T20:22:15.569Z,99.90
2018-03-21T20:24:43.903Z,99.90
2018-03-21T20:27:12.244Z,99.90
2018-03-21T20:29:40.683Z,99.90
2018-03-21T20:32:09.077Z,99.90
2018-03-21T20:34:38.138Z,99.90
2018-03-21T20:37:07.425Z,99.90
2018-03-21T20:39:36.530Z,99.90
2018-03-21T20:42:05.750Z,99.90
2018-03-21T20:44:34.270Z,99.90
2018-03-21T20:47:02.501Z,99.90
2018-03-21T20:49:30.968Z,99.90
2018-03-21T20:51:59.099Z,99.90
2018-03-21T20:54:27.500Z,99.90
2018-03-21T20:56:56.608Z,99.90
2018-03-21T20:59:25.088Z,99.90
2018-03-21T21:01:53.458Z,99.90
2018-03-21T21:04:21.776Z,99.90
2018-03-21T21:06:50.537Z,99.90
2018-03-21T21:09:18.863Z,99.90
2018-03-21T21:11:47.176Z,99.90
2018-03-21T21:14:15.561Z,99.90
2018-03-21T21:16:45.275Z,99.90
2018-03-21T21:19:13.621Z,99.90
2018-03-21T21:21:41.947Z,99.90
2018-03-21T21:24:10.547Z,99.90
2018-03-21T21:26:39.312Z,99.90
2018-03-21T21:29:07.631Z,99.90
2018-03-21T21:31:35.976Z,99.90
2018-03-21T21:34:04.960Z,99.90
2018-03-21T21:36:33.943Z,99.90
2018-03-21T21:39:02.518Z,99.90
2018-03-21T21:41:30.836Z,99.90
2018-03-21T21:43:59.734Z,99.90
2018-03-21T21:46:28.051Z,99.90
2018-03-21T21:48:57.120Z,99.90
2018-03-21T21:51:25.464Z,99.90
2018-03-21T21:53:53.784Z,99.90
2018-03-21T21:56:22.127Z,99.90
2018-03-21T21:58:51.204Z,99.90
2018-03-21T22:01:20.404Z,99.90
2018-03-21T22:03:49.492Z,99.90
2018-03-21T22:06:17.836Z,99.90
2018-03-21T22:08:45.984Z,99.90
2018-03-21T22:11:14.339Z,99.90
2018-03-21T22:13:42.659Z,99.90
2018-03-21T22:16:11.019Z,99.90
2018-03-21T22:18:39.655Z,99.90
2018-03-21T22:21:07.937Z,99.90
2018-03-21T22:23:36.359Z,99.90
2018-03-21T22:26:05.215Z,99.90
2018-03-21T22:28:33.534Z,99.90
2018-03-21T22:31:01.933Z,99.90
2018-03-21T22:33:30.252Z,99.90
2018-03-21T22:35:58.573Z,99.90
2018-03-21T22:38:28.860Z,99.90
2018-03-21T22:40:57.188Z,99.90
2018-03-21T22:43:25.503Z,99.90
2018-03-21T22:45:53.880Z,99.90
2018-03-21T22:48:22.275Z,99.90
2018-03-21T22:50:52.083Z,99.90
2018-03-21T22:53:20.407Z,99.90
2018-03-21T22:55:49.504Z,99.90
2018-03-21T22:58:18.533Z,99.90
2018-03-21T23:00:46.847Z,99.90
2018-03-21T23:03:15.155Z,99.90
2018-03-21T23:05:43.532Z,99.90
2018-03-21T23:08:11.861Z,99.90
2018-03-21T23:10:40.186Z,99.90
2018-03-21T23:13:08.532Z,99.90
2018-03-21T23:15:37.608Z,99.90
2018-03-21T23:18:06.688Z,99.90
2018-03-21T23:20:35.176Z,99.90
2018-03-21T23:23:04.304Z,99.90
2018-03-21T23:25:32.630Z,99.90
2018-03-21T23:28:01.387Z,99.90
2018-03-21T23:30:30.233Z,99.90
2018-03-21T23:32:58.569Z,99.90
2018-03-21T23:35:27.113Z,99.90
2018-03-21T23:37:56.201Z,99.90
2018-03-21T23:40:25.294Z,99.90
2018-03-21T23:42:54.433Z,99.90
2018-03-21T23:45:22.759Z,99.90
2018-03-21T23:47:54.165Z,99.90
2018-03-21T23:50:22.492Z,99.90
2018-03-21T23:52:51.605Z,99.90
2018-03-21T23:55:20.841Z,99.90
2018-03-21T23:57:49.208Z,99.90
